Time;durP1;ratioP1;P1;durP2;ratioP2;P2;SDS_P1;SDS_P2;PMS_P1;PMS_P2;Temp;Humidity;BMP_temperature;BMP_pressure;BME280_temperature;BME280_humidity;BME280_pressure;Samples;Min_cycle;Max_cycle;Signal;HPM_P1;HPM_P2
2023/04/05 00:02:23;;;;;;;5.78;3.58;;;3.70;44.10;;;-1.34;69.47;95823.06;4994139;28;20032;-54
2023/04/05 00:04:50;;;;;;;6.97;4.20;;;3.70;44.20;;;-1.41;68.97;95815.16;4995127;28;20022;-53
2023/04/05 00:07:17;;;;;;;5.85;3.67;;;3.60;44.20;;;-1.37;69.66;95813.00;4994057;28;20037;-53
2023/04/05 00:09:43;;;;;;;6.28;3.75;;;3.60;44.40;;;-1.41;70.31;95802.09;4994645;28;20037;-52
2023/04/05 00:12:09;;;;;;;7.05;4.20;;;3.60;44.40;;;-1.46;70.28;95812.28;4992465;28;20556;-50
2023/04/05 00:14:35;;;;;;;7.57;4.15;;;3.50;44.50;;;-1.50;70.96;95797.97;4994548;28;20025;-54
2023/04/05 00:17:01;;;;;;;5.95;3.88;;;3.60;44.60;;;-1.51;71.75;95805.97;4994530;28;20157;-52
2023/04/05 00:19:27;;;;;;;6.50;4.30;;;3.50;44.70;;;-1.55;72.23;95802.13;4991738;28;20388;-54
2023/04/05 00:21:53;;;;;;;7.53;4.18;;;3.50;44.80;;;-1.55;72.62;95802.13;4994467;28;20033;-51
2023/04/05 00:24:19;;;;;;;4.85;4.05;;;3.50;44.90;;;-1.60;72.81;95807.88;4993445;28;20049;-50
2023/04/05 00:26:45;;;;;;;6.65;4.30;;;3.40;45.00;;;-1.58;72.27;95805.91;4994355;28;20017;-50
2023/04/05 00:29:11;;;;;;;9.20;4.03;;;3.40;45.20;;;-1.59;72.05;95795.66;4994179;28;20113;-55
2023/04/05 00:31:37;;;;;;;7.60;4.18;;;3.40;45.20;;;-1.59;72.27;95796.47;4993381;28;20018;-52
2023/04/05 00:34:07;;;;;;;5.68;4.00;;;3.40;45.30;;;-1.59;71.89;95790.44;4994384;28;20502;-54
2023/04/05 00:36:35;;;;;;;5.78;3.97;;;3.40;45.90;;;-1.61;71.86;95793.22;4993394;28;20018;-53
2023/04/05 00:39:00;;;;;;;7.72;4.00;;;3.40;45.40;;;-1.67;72.09;95786.09;4993812;28;20073;-54
2023/04/05 00:41:26;;;;;;;7.28;3.92;;;3.40;45.50;;;-1.63;72.21;95782.97;4994005;28;20126;-51
2023/04/05 00:43:52;;;;;;;5.10;4.05;;;3.30;45.60;;;-1.57;72.50;95780.59;4992108;28;20109;-53
2023/04/05 00:46:18;;;;;;;6.40;4.15;;;3.40;45.70;;;-1.54;72.58;95785.44;4994391;28;20025;-49
2023/04/05 00:48:44;;;;;;;6.22;4.30;;;3.40;45.80;;;-1.47;72.42;95786.34;4992026;28;20030;-51
2023/04/05 00:51:10;;;;;;;6.22;4.05;;;3.40;45.90;;;-1.44;72.26;95789.41;4976698;28;20053;-55
2023/04/05 00:53:37;;;;;;;6.15;3.85;;;3.40;45.90;;;-1.38;72.30;95785.22;4993162;28;20161;-51
2023/04/05 00:56:04;;;;;;;8.27;4.35;;;3.50;46.00;;;-1.41;72.54;95789.03;4993836;28;20369;-52
2023/04/05 00:58:30;;;;;;;5.43;4.07;;;3.50;46.10;;;-1.38;70.20;95777.38;4993787;28;20034;-50
2023/04/05 01:01:15;;;;;;;4.90;3.67;;;3.50;46.10;;;-1.29;71.36;95773.66;4982739;28;20137;-50
2023/04/05 01:04:01;;;;;;;5.00;4.05;;;3.60;46.20;;;-1.28;71.41;95779.72;4974332;28;20026;-49
2023/04/05 01:07:19;;;;;;;6.05;3.97;;;3.60;46.20;;;-1.27;70.09;95776.09;4964374;28;20022;-51
2023/04/05 01:09:57;;;;;;;4.80;3.55;;;3.60;46.20;;;-1.20;70.49;95764.69;4993211;28;20044;-50
2023/04/05 01:12:31;;;;;;;5.30;4.05;;;3.60;46.20;;;-1.21;70.95;95768.31;4992903;28;20113;-49
2023/04/05 01:14:59;;;;;;;6.68;4.28;;;3.70;46.20;;;-1.17;71.13;95764.31;4993540;28;20034;-49
2023/04/05 01:17:35;;;;;;;7.05;4.13;;;3.70;46.20;;;-1.18;71.11;95757.50;4993560;28;20025;-51
2023/04/05 01:20:10;;;;;;;5.13;3.83;;;3.70;46.20;;;-1.16;71.26;95762.50;4993140;28;20060;-54
2023/04/05 01:23:44;;;;;;;6.95;4.18;;;3.70;46.20;;;-1.14;70.82;95757.91;4993422;28;20017;-47
2023/04/05 01:26:56;;;;;;;;;;;3.80;46.30;;;-1.18;71.02;95761.91;4992123;28;20045;-49
2023/04/05 01:30:11;;;;;;;5.80;4.05;;;3.80;46.00;;;-1.22;70.40;95750.22;4992666;28;19912;-49
2023/04/05 01:33:02;;;;;;;6.40;4.03;;;3.70;46.10;;;-1.22;70.32;95755.44;4973754;28;20077;-54
2023/04/05 01:35:49;;;;;;;8.10;4.32;;;3.70;46.70;;;-1.24;71.15;95746.97;4972658;28;20035;-52
2023/04/05 01:38:24;;;;;;;6.60;4.13;;;3.70;46.20;;;-1.27;70.95;95750.75;4972160;28;20526;-49
2023/04/05 01:40:51;;;;;;;5.95;3.97;;;3.70;46.20;;;-1.27;70.83;95750.75;4972572;28;20512;-50
2023/04/05 01:43:17;;;;;;;7.43;4.28;;;3.80;46.30;;;-1.28;70.59;95751.78;4985762;28;20067;-54
2023/04/05 01:45:46;;;;;;;8.68;5.00;;;3.70;46.30;;;-1.31;72.40;95748.72;4992977;28;20022;-51
2023/04/05 01:48:13;;;;;;;8.93;4.15;;;3.70;46.40;;;-1.33;72.76;95748.91;4992404;28;20018;-49
2023/04/05 01:50:39;;;;;;;5.88;4.32;;;3.80;46.50;;;-1.35;72.51;95737.00;4992935;28;20041;-52
2023/04/05 01:53:07;;;;;;;6.53;4.35;;;3.80;46.50;;;-1.38;73.08;95743.41;4992913;28;20022;-52
2023/04/05 01:55:33;;;;;;;6.43;4.40;;;3.70;46.60;;;-1.40;73.56;95741.00;4990541;28;20378;-51
2023/04/05 01:57:59;;;;;;;9.00;4.57;;;3.70;46.70;;;-1.42;73.47;95742.16;4992723;28;20033;-51
2023/04/05 02:00:26;;;;;;;8.55;4.63;;;3.70;46.70;;;-1.41;72.81;95739.38;4991711;28;20404;-49
2023/04/05 02:02:52;;;;;;;6.88;4.70;;;3.70;46.70;;;-1.42;72.69;95739.56;4992534;28;20112;-50
2023/04/05 02:05:18;;;;;;;6.47;4.45;;;3.70;46.80;;;-1.43;71.99;95736.13;4992784;28;20565;-50
2023/04/05 02:07:44;;;;;;;6.82;4.57;;;3.70;46.80;;;-1.46;71.89;95733.09;4991647;28;20065;-47
2023/04/05 02:10:10;;;;;;;6.72;4.50;;;3.70;46.80;;;-1.47;71.87;95734.91;4992314;28;20025;-52
2023/04/05 02:12:36;;;;;;;7.70;4.63;;;3.70;46.80;;;-1.52;72.10;95737.25;4991569;28;20022;-50
2023/04/05 02:15:02;;;;;;;6.32;4.25;;;3.70;46.80;;;-1.52;72.27;95726.00;4992255;28;20026;-47
2023/04/05 02:17:32;;;;;;;8.32;4.85;;;3.70;46.90;;;-1.49;72.26;95725.63;4992290;28;20216;-47
2023/04/05 02:20:05;;;;;;;6.07;4.78;;;3.70;46.90;;;-1.49;71.98;95725.63;4992492;28;20084;-51
2023/04/05 02:22:30;;;;;;;8.60;4.75;;;3.60;46.80;;;-1.49;71.44;95717.78;4992552;28;20049;-51
2023/04/05 02:24:56;;;;;;;5.30;4.00;;;3.60;46.80;;;-1.51;71.18;95719.75;4991529;28;20115;-48
2023/04/05 02:27:23;;;;;;;6.18;4.18;;;3.60;46.90;;;-1.53;71.84;95725.19;4992232;28;20431;-52
2023/04/05 02:29:50;;;;;;;8.20;5.05;;;3.60;46.90;;;-1.52;71.79;95724.19;4991133;28;20151;-51
2023/04/05 02:32:16;;;;;;;7.35;4.43;;;3.60;46.90;;;-1.51;71.98;95723.19;4992331;28;20492;-54
2023/04/05 02:34:42;;;;;;;8.13;4.50;;;3.60;47.00;;;-1.54;71.03;95712.28;4992397;28;20036;-53
2023/04/05 02:37:08;;;;;;;6.40;4.07;;;3.60;47.00;;;-1.54;71.23;95712.28;4991311;28;20469;-54
2023/04/05 02:39:34;;;;;;;6.80;4.07;;;3.60;47.00;;;-1.53;71.20;95717.34;4991790;28;20060;-49
2023/04/05 02:42:00;;;;;;;7.32;4.65;;;3.60;47.00;;;-1.60;71.83;95708.63;4990905;28;20026;-50
2023/04/05 02:44:25;;;;;;;8.68;5.18;;;3.60;47.00;;;-1.61;71.97;95707.00;4991958;28;20021;-53
2023/04/05 02:46:51;;;;;;;8.13;5.05;;;3.60;47.10;;;-1.57;71.86;95697.00;4992264;28;20389;-53
2023/04/05 02:49:17;;;;;;;9.48;6.05;;;3.60;47.10;;;-1.58;71.60;95701.41;4991199;28;20477;-48
2023/04/05 02:51:43;;;;;;;6.45;4.68;;;3.60;47.20;;;-1.58;71.57;95708.44;4992082;28;20492;-49
2023/04/05 02:54:09;;;;;;;7.35;4.78;;;3.50;47.20;;;-1.63;71.98;95694.16;4991114;28;20684;-48
2023/04/05 02:56:35;;;;;;;8.55;4.93;;;3.50;47.20;;;-1.64;72.06;95696.94;4991885;28;20029;-48
2023/04/05 02:59:01;;;;;;;10.07;4.90;;;3.50;47.20;;;-1.64;72.74;95695.13;4991711;28;20461;-51
2023/04/05 03:01:27;;;;;;;9.80;4.88;;;3.50;47.30;;;-1.63;72.67;95693.31;4990866;28;20088;-49
2023/04/05 03:03:53;;;;;;;7.80;4.75;;;3.50;47.40;;;-1.65;72.48;95688.28;4991914;28;20033;-49
2023/04/05 03:06:19;;;;;;;9.18;5.40;;;3.40;47.40;;;-1.66;71.54;95688.44;4991146;28;20104;-54
2023/04/05 03:08:48;;;;;;;10.80;5.32;;;3.40;47.50;;;-1.68;71.97;95683.44;4991693;28;20500;-51
2023/04/05 03:11:15;;;;;;;7.68;5.30;;;3.40;47.50;;;-1.70;72.21;95682.00;4992235;28;20099;-50
2023/04/05 03:13:40;;;;;;;8.88;5.13;;;3.40;47.60;;;-1.71;72.33;95680.38;4990598;28;20038;-53
2023/04/05 03:16:07;;;;;;;8.05;5.22;;;3.40;47.60;;;-1.71;72.32;95681.19;4991848;28;20026;-50
2023/04/05 03:18:32;;;;;;;8.27;4.65;;;3.40;47.60;;;-1.72;71.96;95684.81;4990934;28;20037;-50
2023/04/05 03:20:58;;;;;;;8.18;4.78;;;3.30;47.60;;;-1.73;72.07;95688.38;4991818;28;20018;-50
2023/04/05 03:23:29;;;;;;;6.97;5.55;;;3.30;47.60;;;-1.77;72.88;95681.94;4991822;28;20149;-52
2023/04/05 03:26:05;;;;;;;9.18;6.03;;;3.30;47.70;;;-1.81;73.59;95679.88;4990670;28;20028;-54
2023/04/05 03:28:31;;;;;;;7.43;5.07;;;3.30;47.80;;;-1.83;72.89;95685.28;4991997;28;20041;-50
2023/04/05 03:30:58;;;;;;;7.97;5.18;;;3.30;47.80;;;-1.90;73.05;95682.59;4991003;28;20054;-51
2023/04/05 03:33:23;;;;;;;8.43;5.35;;;3.30;47.80;;;-1.96;75.37;95683.31;4990546;28;20127;-52
2023/04/05 03:35:50;;;;;;;7.38;4.75;;;3.30;47.80;;;-2.00;74.46;95681.28;4990690;28;20510;-53
2023/04/05 03:38:16;;;;;;;6.60;5.00;;;3.20;47.80;;;-2.02;75.23;95686.66;4991147;28;20060;-53
2023/04/05 03:40:42;;;;;;;6.93;5.00;;;3.20;47.80;;;-2.05;73.70;95678.41;4991931;28;20030;-54
2023/04/05 03:43:08;;;;;;;7.15;4.88;;;3.20;47.90;;;-2.08;73.18;95679.56;4990552;28;20040;-52
2023/04/05 03:45:34;;;;;;;10.23;5.43;;;3.20;47.90;;;-2.11;73.22;95674.72;4990508;28;20101;-48
2023/04/05 03:48:01;;;;;;;8.68;5.30;;;3.10;47.90;;;-2.14;73.92;95669.88;4990415;28;20013;-48
2023/04/05 03:50:28;;;;;;;13.48;5.78;;;3.10;48.00;;;-2.14;74.18;95667.25;4991598;28;20022;-51
2023/04/05 03:52:54;;;;;;;8.25;4.95;;;3.00;48.00;;;-2.14;74.16;95670.66;4991704;28;20021;-48
2023/04/05 03:55:19;;;;;;;11.77;5.78;;;3.00;48.10;;;-2.20;74.40;95671.41;4994370;28;20022;-48
2023/04/05 03:57:47;;;;;;;9.82;5.63;;;2.90;48.20;;;-2.28;75.75;95662.88;4995020;28;20029;-50
2023/04/05 04:00:13;;;;;;;10.25;5.85;;;2.90;48.20;;;-2.33;75.97;95668.63;4992488;28;20029;-49
2023/04/05 04:02:49;;;;;;;6.72;5.20;;;2.90;48.30;;;-2.41;75.52;95661.72;4985059;28;20160;-48
2023/04/05 04:05:16;;;;;;;9.88;5.40;;;2.80;48.40;;;-2.48;75.51;95663.41;4977931;28;20021;-48
2023/04/05 04:07:43;;;;;;;9.02;5.57;;;2.70;48.40;;;-2.57;75.17;95664.50;4993180;28;20156;-51
2023/04/05 04:10:14;;;;;;;7.97;5.90;;;2.70;49.00;;;-2.65;74.61;95662.00;4986520;28;20030;-47
2023/04/05 04:12:40;;;;;;;9.35;5.45;;;2.60;48.40;;;-2.74;75.17;95669.09;4973601;28;20022;-54
2023/04/05 04:15:07;;;;;;;8.15;5.70;;;2.50;48.40;;;-2.85;75.81;95665.16;4975218;28;20029;-54
2023/04/05 04:17:36;;;;;;;11.27;5.93;;;2.40;48.40;;;-2.88;76.41;95668.13;4974893;28;20026;-50
2023/04/05 04:20:09;;;;;;;9.07;5.57;;;2.40;48.60;;;-2.93;76.65;95669.63;4992837;28;20057;-50
2023/04/05 04:22:39;;;;;;;8.32;5.28;;;2.30;48.70;;;-2.96;76.75;95681.22;4994231;28;20013;-52
2023/04/05 04:25:11;;;;;;;10.85;6.10;;;2.20;48.70;;;-3.00;77.32;95666.13;4993566;28;20026;-52
2023/04/05 04:27:42;;;;;;;9.38;5.45;;;2.20;48.80;;;-3.04;77.52;95660.44;4994107;28;20022;-49
2023/04/05 04:30:14;;;;;;;13.43;6.35;;;2.10;48.80;;;-3.11;78.00;95665.56;4989166;28;20026;-49
2023/04/05 04:32:54;;;;;;;8.70;5.30;;;2.10;49.00;;;-3.19;79.26;95664.84;4989397;28;20029;-49
2023/04/05 04:35:29;;;;;;;7.50;5.50;;;2.00;49.00;;;-3.23;79.71;95659.16;4994097;28;20049;-52
2023/04/05 04:38:05;;;;;;;8.57;5.88;;;1.90;49.10;;;-3.27;79.85;95657.88;4992782;28;20110;-50
2023/04/05 04:40:37;;;;;;;9.57;5.88;;;1.90;49.30;;;-3.26;80.07;95662.09;4994161;28;20037;-49
2023/04/05 04:43:13;;;;;;;7.57;4.93;;;1.90;49.40;;;-3.23;80.27;95653.13;4992870;28;20038;-53
2023/04/05 04:45:40;;;;;;;9.60;5.60;;;1.80;49.40;;;-3.27;80.36;95661.28;4994017;28;20173;-52
2023/04/05 04:48:07;;;;;;;9.30;6.45;;;1.80;49.40;;;-3.30;79.92;95653.84;4993280;28;20032;-52
2023/04/05 04:50:34;;;;;;;7.15;5.30;;;1.70;49.50;;;-3.35;79.88;95650.97;4993785;28;20036;-52
2023/04/05 04:53:01;;;;;;;11.02;6.55;;;1.70;49.60;;;-3.42;79.52;95655.25;4992632;28;20056;-52
2023/04/05 04:55:32;;;;;;;8.52;5.47;;;1.70;49.60;;;-3.50;80.38;95653.53;4992969;28;20030;-49
2023/04/05 04:57:59;;;;;;;9.65;6.25;;;1.60;49.70;;;-3.54;79.95;95654.03;4993387;28;20014;-53
2023/04/05 05:00:25;;;;;;;10.93;6.38;;;1.60;49.80;;;-3.65;80.10;95654.47;4992742;28;20025;-50
2023/04/05 05:02:52;;;;;;;10.73;6.20;;;1.50;49.80;;;-3.72;81.52;95660.38;4993406;28;20022;-48
2023/04/05 05:05:21;;;;;;;12.27;6.63;;;1.50;49.90;;;-3.80;82.10;95660.41;4993477;28;20079;-51
2023/04/05 05:07:48;;;;;;;10.30;6.40;;;1.40;50.00;;;-3.82;81.97;95661.59;4992199;28;20026;-50
2023/04/05 05:10:15;;;;;;;10.93;6.85;;;1.40;50.00;;;-3.88;82.90;95663.09;4992068;28;20057;-52
2023/04/05 05:12:42;;;;;;;10.77;6.95;;;1.40;50.10;;;-3.89;83.22;95664.03;4992348;28;20552;-53
2023/04/05 05:15:09;;;;;;;12.65;6.55;;;1.40;50.20;;;-3.91;83.54;95673.84;4993554;28;20064;-46
2023/04/05 05:17:36;;;;;;;9.82;6.28;;;1.30;50.30;;;-3.91;84.18;95678.25;4992883;28;20444;-48
2023/04/05 05:20:09;;;;;;;9.90;6.25;;;1.30;50.40;;;-3.88;84.03;95680.50;4992923;28;20480;-51
2023/04/05 05:22:38;;;;;;;9.18;6.45;;;1.30;50.50;;;-3.82;84.68;95685.03;4987439;28;20022;-52
2023/04/05 05:25:06;;;;;;;10.18;6.68;;;1.40;50.60;;;-3.76;84.78;95685.13;4991778;28;20137;-48
2023/04/05 05:27:35;;;;;;;8.95;6.72;;;1.40;50.70;;;-3.69;84.48;95687.03;4992947;28;20473;-49
2023/04/05 05:30:01;;;;;;;9.50;5.90;;;1.40;50.80;;;-3.64;85.41;95682.91;4992272;28;20021;-48
2023/04/05 05:32:27;;;;;;;11.02;6.85;;;1.50;51.00;;;-3.54;85.14;95680.91;4979492;28;20030;-47
2023/04/05 05:34:53;;;;;;;11.13;6.93;;;1.60;51.00;;;-3.42;84.44;95680.47;4973537;28;20037;-52
2023/04/05 05:37:28;;;;;;;7.78;5.97;;;1.70;51.10;;;-3.35;83.73;95686.63;4985864;28;20120;-51
2023/04/05 05:39:54;;;;;;;8.55;5.90;;;1.70;51.10;;;-3.31;83.36;95685.28;4993305;28;20050;-45
2023/04/05 05:42:20;;;;;;;9.65;6.38;;;1.80;51.10;;;-3.23;83.66;95679.19;4992053;28;20101;-43
2023/04/05 05:44:46;;;;;;;13.70;5.93;;;1.90;51.10;;;-3.16;83.33;95680.13;4992685;28;20030;-43
2023/04/05 05:47:12;;;;;;;9.15;6.00;;;2.00;51.10;;;-3.07;82.94;95690.28;4992749;28;20022;-51
2023/04/05 05:49:38;;;;;;;10.40;6.00;;;2.10;51.10;;;-2.96;82.26;95690.84;4991941;28;20049;-44
2023/04/05 05:52:04;;;;;;;10.55;5.57;;;2.20;51.00;;;-2.72;81.98;95697.63;4992480;28;20026;-43
2023/04/05 05:54:30;;;;;;;10.68;6.25;;;2.40;51.10;;;-2.42;80.56;95694.00;4985959;28;20050;-43
2023/04/05 05:56:56;;;;;;;8.93;6.07;;;2.70;51.00;;;-2.12;78.32;95686.97;4972910;28;20018;-43
2023/04/05 05:59:22;;;;;;;10.55;5.90;;;3.00;51.00;;;-1.77;77.04;95688.97;4972926;28;20041;-47
2023/04/05 06:01:50;;;;;;;9.73;6.32;;;3.40;51.00;;;-1.44;74.91;95684.88;4988524;28;20095;-45
2023/04/05 06:04:16;;;;;;;8.90;5.55;;;3.80;50.70;;;-1.14;73.88;95689.94;4992400;28;20546;-45
2023/04/05 06:06:45;;;;;;;8.23;5.57;;;4.10;50.50;;;-0.81;73.24;95692.81;4991400;28;20075;-47
2023/04/05 06:09:11;;;;;;;9.20;5.35;;;4.50;50.30;;;-0.41;72.14;95687.00;4989400;28;20033;-44
2023/04/05 06:11:37;;;;;;;8.57;5.40;;;4.80;50.00;;;-0.10;69.51;95692.59;4973544;28;20453;-51
2023/04/05 06:14:03;;;;;;;8.63;5.00;;;5.20;49.80;;;0.19;67.37;95696.75;4990732;28;20053;-45
2023/04/05 06:16:29;;;;;;;6.95;4.90;;;5.60;49.40;;;0.41;65.50;95694.81;4991684;28;20060;-48
2023/04/05 06:18:56;;;;;;;10.00;4.90;;;6.00;49.00;;;0.64;63.46;95694.44;4990885;28;20030;-50
2023/04/05 06:21:23;;;;;;;7.80;5.53;;;6.40;48.50;;;0.91;64.14;95699.72;4991073;28;20029;-46
2023/04/05 06:23:49;;;;;;;6.93;4.78;;;6.70;48.00;;;0.97;62.36;95705.97;4991192;28;20084;-45
2023/04/05 06:26:26;;;;;;;7.50;4.93;;;7.00;47.60;;;1.17;61.86;95704.16;4977584;28;20014;-45
2023/04/05 06:28:53;;;;;;;7.60;4.65;;;7.20;47.10;;;1.32;60.65;95698.72;4979042;28;20057;-46
2023/04/05 06:31:26;;;;;;;5.75;4.10;;;7.40;46.80;;;1.57;60.26;95701.50;4990829;28;20105;-50
2023/04/05 06:33:52;;;;;;;6.85;4.72;;;7.70;47.00;;;1.51;59.45;95700.50;4991846;28;20491;-45
2023/04/05 06:36:18;;;;;;;6.93;4.70;;;7.80;46.00;;;1.51;59.11;95703.13;4991064;28;20052;-45
2023/04/05 06:38:43;;;;;;;6.78;4.00;;;7.70;45.70;;;1.60;59.57;95701.91;4991368;28;20065;-44
2023/04/05 06:41:09;;;;;;;7.47;4.82;;;7.80;45.50;;;1.60;58.51;95701.91;4991544;28;20038;-45
2023/04/05 06:43:35;;;;;;;5.95;4.28;;;7.90;45.20;;;1.65;58.67;95703.91;4990808;28;20076;-45
2023/04/05 06:46:01;;;;;;;7.28;4.57;;;8.00;45.00;;;1.64;58.75;95691.78;4991727;28;20045;-47
2023/04/05 06:48:28;;;;;;;6.50;4.30;;;8.00;44.80;;;1.52;58.73;95696.06;4990707;28;20057;-45
2023/04/05 06:51:00;;;;;;;9.45;4.57;;;8.10;44.60;;;1.57;59.55;95699.69;4974561;28;20022;-45
2023/04/05 06:53:27;;;;;;;6.97;4.53;;;8.20;44.40;;;1.80;58.59;95693.97;4990650;28;20123;-46
2023/04/05 06:55:59;;;;;;;9.55;4.20;;;8.40;44.30;;;1.78;57.67;95693.34;4989472;28;20072;-47
2023/04/05 06:58:26;;;;;;;6.38;4.38;;;8.50;44.00;;;1.90;57.45;95697.97;4990449;28;20034;-46
2023/04/05 07:00:53;;;;;;;5.28;4.10;;;8.70;43.80;;;2.05;56.66;95694.09;4990385;28;20507;-45
2023/04/05 07:03:19;;;;;;;6.43;4.35;;;8.80;43.60;;;2.39;56.62;95691.31;4991530;28;20032;-48
2023/04/05 07:06:01;;;;;;;7.38;4.22;;;9.00;43.40;;;2.68;55.15;95697.81;4990809;28;20022;-48
2023/04/05 07:08:31;;;;;;;5.80;4.37;;;9.30;43.10;;;2.96;54.13;95698.22;4990417;28;20113;-53
2023/04/05 07:10:58;;;;;;;5.05;4.38;;;9.60;43.00;;;2.75;52.74;95699.38;4991401;28;20477;-47
2023/04/05 07:13:25;;;;;;;6.82;4.22;;;9.90;42.60;;;3.00;54.01;95704.66;4976513;28;20439;-46
2023/04/05 07:15:58;;;;;;;8.07;4.32;;;10.00;42.10;;;3.34;53.36;95696.50;4987155;28;20022;-47
2023/04/05 07:18:24;;;;;;;5.53;4.03;;;10.30;41.90;;;3.65;51.67;95706.16;4975649;28;20397;-48
2023/04/05 07:20:50;;;;;;;7.57;4.28;;;10.60;41.70;;;3.87;51.23;95704.72;4991374;28;20029;-48
2023/04/05 07:23:16;;;;;;;5.82;4.03;;;10.80;41.20;;;4.03;50.53;95702.50;4991509;28;20026;-50
2023/04/05 07:25:43;;;;;;;3.97;3.33;;;11.00;40.90;;;4.07;50.34;95698.41;4988998;28;20522;-48
2023/04/05 07:28:09;;;;;;;5.88;4.07;;;11.20;40.60;;;4.17;50.16;95704.00;4992146;28;20038;-47
2023/04/05 07:30:35;;;;;;;6.43;4.22;;;11.40;40.20;;;4.49;49.22;95698.53;4986717;28;20033;-47
2023/04/05 07:33:01;;;;;;;6.32;4.20;;;11.60;39.90;;;4.55;48.88;95698.44;4974407;28;20053;-47
2023/04/05 07:35:28;;;;;;;5.88;3.88;;;11.80;39.60;;;4.78;48.35;95697.69;4975841;28;20050;-51
2023/04/05 07:37:55;;;;;;;6.13;4.45;;;12.00;39.30;;;4.88;48.41;95695.31;4989692;28;20468;-46
2023/04/05 07:40:20;;;;;;;6.95;4.40;;;12.10;39.00;;;5.10;47.40;95702.72;4994930;28;20048;-48
2023/04/05 07:42:46;;;;;;;5.03;3.92;;;12.30;38.70;;;5.44;46.56;95714.34;4994385;28;20021;-48
2023/04/05 07:45:12;;;;;;;5.13;4.10;;;12.60;38.50;;;5.41;45.21;95706.88;4995210;28;20088;-47
2023/04/05 07:47:38;;;;;;;4.90;4.00;;;12.80;38.00;;;5.32;45.24;95708.25;4995224;28;20029;-51
2023/04/05 07:50:06;;;;;;;6.20;4.00;;;12.90;37.50;;;5.63;45.15;95698.41;4994256;28;20021;-47
2023/04/05 07:52:31;;;;;;;4.95;3.40;;;13.10;37.10;;;5.58;43.97;95714.94;4993606;28;20034;-47
2023/04/05 07:54:57;;;;;;;6.07;4.10;;;13.20;36.80;;;5.82;44.02;95717.56;4993692;28;20026;-47
2023/04/05 07:57:23;;;;;;;5.97;3.88;;;13.40;36.50;;;5.93;43.80;95708.88;4995016;28;20032;-48
2023/04/05 07:59:49;;;;;;;4.65;3.42;;;13.50;36.20;;;5.90;43.15;95719.88;4994234;28;20559;-49
2023/04/05 08:02:16;;;;;;;9.15;4.18;;;13.70;36.00;;;6.27;42.95;95712.50;4975113;28;20018;-47
2023/04/05 08:04:42;;;;;;;4.05;3.65;;;13.80;35.70;;;6.77;42.56;95721.63;4974084;28;20030;-49
2023/04/05 08:07:08;;;;;;;4.65;3.75;;;14.00;35.60;;;6.54;43.04;95714.59;4985456;28;20030;-48
2023/04/05 08:09:35;;;;;;;4.82;3.63;;;14.10;35.20;;;6.83;42.18;95721.53;4994392;28;20487;-47
2023/04/05 08:12:01;;;;;;;4.63;3.42;;;14.20;35.00;;;6.92;42.14;95721.91;4992835;28;20075;-47
2023/04/05 08:14:28;;;;;;;4.40;3.50;;;14.30;34.80;;;7.03;41.27;95717.63;4994647;28;20030;-50
2023/04/05 08:16:54;;;;;;;5.10;3.53;;;14.40;34.50;;;6.99;41.12;95727.88;4977102;28;20018;-48
2023/04/05 08:19:20;;;;;;;6.50;3.67;;;14.60;34.20;;;7.00;40.69;95721.53;4993499;28;20030;-48
2023/04/05 08:21:46;;;;;;;5.15;4.10;;;14.70;33.80;;;7.30;40.36;95721.28;4994366;28;20095;-51
2023/04/05 08:24:12;;;;;;;6.78;3.63;;;14.80;33.60;;;7.23;41.60;95728.53;4993637;28;20070;-47
2023/04/05 08:26:38;;;;;;;5.40;3.85;;;14.90;33.40;;;7.16;40.17;95719.97;4994355;28;20025;-47
2023/04/05 08:29:04;;;;;;;7.88;4.18;;;15.00;33.20;;;7.14;40.23;95717.53;4994411;28;20026;-47
2023/04/05 08:31:30;;;;;;;4.50;3.95;;;15.20;32.80;;;7.44;40.70;95718.28;4993254;28;20083;-48
2023/04/05 08:33:55;;;;;;;5.65;3.80;;;15.30;32.60;;;7.61;40.01;95716.41;4994101;28;20033;-49
2023/04/05 08:36:21;;;;;;;4.55;3.72;;;15.40;32.40;;;7.71;39.94;95721.06;4993221;28;20437;-50
2023/04/05 08:38:47;;;;;;;5.18;3.90;;;15.50;32.30;;;6.89;40.33;95717.09;4993066;28;20029;-54
2023/04/05 08:41:25;;;;;;;4.78;3.40;;;15.50;32.00;;;7.33;40.54;95720.78;4994209;28;20025;-48
2023/04/05 08:44:04;;;;;;;4.35;3.58;;;15.60;31.80;;;7.82;40.76;95723.63;4992006;28;20028;-48
2023/04/05 08:46:34;;;;;;;7.85;4.63;;;15.60;31.80;;;8.31;39.08;95718.47;4993971;28;20021;-50
2023/04/05 08:49:07;;;;;;;5.00;3.80;;;15.70;31.90;;;8.45;38.74;95718.13;4992602;28;20025;-49
2023/04/05 08:51:40;;;;;;;5.65;4.10;;;15.80;31.60;;;8.57;39.10;95729.41;4992874;28;20045;-47
2023/04/05 08:54:06;;;;;;;4.82;3.45;;;16.10;32.20;;;8.59;38.65;95732.63;4993059;28;20638;-47
2023/04/05 08:56:35;;;;;;;4.47;3.90;;;16.30;31.40;;;8.89;38.58;95729.50;4993682;28;20120;-48
2023/04/05 08:59:10;;;;;;;5.45;4.15;;;16.50;31.20;;;9.49;37.43;95731.16;4992412;28;20053;-50
2023/04/05 09:01:44;;;;;;;5.05;4.40;;;16.90;31.60;;;9.84;36.60;95732.47;4992387;28;20024;-48
2023/04/05 09:04:23;;;;;;;6.30;4.32;;;17.30;30.50;;;9.69;36.62;95743.00;4993932;28;20096;-48
2023/04/05 09:06:54;;;;;;;5.28;4.70;;;17.60;30.70;;;9.15;37.12;95727.91;4975387;28;20020;-48
2023/04/05 09:09:22;;;;;;;6.07;4.20;;;17.80;29.80;;;9.44;37.47;95740.94;4976704;28;20049;-49
2023/04/05 09:11:49;;;;;;;8.68;4.82;;;17.90;29.50;;;9.94;36.59;95732.53;4991432;28;20021;-51
2023/04/05 09:14:18;;;;;;;7.40;4.65;;;18.00;29.30;;;10.31;36.55;95729.03;4993462;28;20033;-49
2023/04/05 09:16:44;;;;;;;5.55;4.70;;;18.10;29.80;;;9.86;36.30;95734.84;4993618;28;20107;-52
2023/04/05 09:19:10;;;;;;;7.07;4.32;;;18.30;29.10;;;10.22;36.01;95738.56;4992511;28;20087;-48
2023/04/05 09:22:06;;;;;;;5.38;4.30;;;18.40;28.90;;;10.11;34.71;95736.88;4993386;28;20033;-49
2023/04/05 09:24:45;;;;;;;5.32;3.88;;;18.60;28.40;;;10.48;34.73;95738.69;4992286;28;20269;-48
2023/04/05 09:27:19;;;;;;;5.30;4.45;;;18.70;28.40;;;10.69;34.41;95739.59;4982581;28;20468;-51
2023/04/05 09:29:48;;;;;;;4.57;3.85;;;18.80;28.30;;;10.76;34.25;95729.50;4986971;28;20050;-55
2023/04/05 09:32:19;;;;;;;4.45;4.05;;;19.00;28.70;;;10.68;34.21;95727.31;4973536;28;20069;-50
2023/04/05 09:34:45;;;;;;;6.07;4.40;;;19.30;28.50;;;10.99;34.91;95741.53;4992035;28;20021;-48
2023/04/05 09:37:20;;;;;;;4.82;3.95;;;19.50;27.90;;;10.91;34.13;95744.72;4990343;28;20492;-52
2023/04/05 09:39:50;;;;;;;5.13;4.63;;;19.60;27.70;;;10.87;35.08;95741.75;4984186;28;20480;-52
2023/04/05 09:42:23;;;;;;;8.07;5.22;;;19.60;27.50;;;11.21;34.14;95747.44;4973647;28;20017;-52
2023/04/05 09:45:05;;;;;;;4.82;4.32;;;19.60;27.30;;;11.35;32.85;95740.53;4974409;28;20080;-50
2023/04/05 09:47:35;;;;;;;4.85;4.20;;;19.50;27.10;;;11.54;32.23;95751.50;4973379;28;20022;-50
2023/04/05 09:50:17;;;;;;;4.90;3.95;;;19.60;27.20;;;11.44;32.20;95748.00;4988693;28;20025;-52
2023/04/05 09:52:44;;;;;;;5.22;4.18;;;19.70;27.00;;;11.63;32.82;95749.09;4986883;28;20014;-52
2023/04/05 09:55:11;;;;;;;7.35;4.88;;;19.80;27.00;;;11.80;32.18;95743.47;4966217;28;20045;-49
2023/04/05 09:57:44;;;;;;;5.82;5.05;;;19.90;26.70;;;12.22;33.15;95743.19;4992466;28;20063;-48
2023/04/05 10:00:22;;;;;;;6.35;5.10;;;20.10;26.60;;;11.99;31.69;95751.78;4991897;28;20034;-50
2023/04/05 10:02:54;;;;;;;5.85;4.75;;;20.20;26.40;;;11.08;32.80;95748.75;4976149;28;20026;-49
2023/04/05 10:05:26;;;;;;;9.77;4.95;;;20.20;26.00;;;11.66;33.25;95753.91;4972001;28;20033;-48
2023/04/05 10:07:55;;;;;;;5.45;4.03;;;20.20;26.00;;;11.49;31.49;95748.00;4981285;28;20112;-50
2023/04/05 10:10:23;;;;;;;5.45;4.70;;;20.20;25.90;;;11.42;31.73;95747.47;4984456;28;20571;-49
2023/04/05 10:12:50;;;;;;;5.45;4.45;;;20.30;25.60;;;11.67;32.31;95747.50;4990158;28;20033;-52
2023/04/05 10:15:17;;;;;;;5.30;4.80;;;20.30;25.60;;;11.74;30.54;95744.56;4991325;28;20057;-51
2023/04/05 10:18:28;;;;;;;5.97;5.05;;;20.30;25.30;;;11.80;30.61;95738.94;4992351;28;20022;-50
2023/04/05 10:20:58;;;;;;;4.93;4.43;;;20.40;25.10;;;11.66;30.15;95751.25;4987827;28;20079;-48
2023/04/05 10:23:33;;;;;;;5.78;4.57;;;20.30;24.90;;;11.21;30.31;95747.44;4991050;28;20030;-50
2023/04/05 10:26:15;;;;;;;6.35;4.65;;;20.30;24.70;;;11.33;29.46;95753.34;4991263;28;20104;-49
2023/04/05 10:29:00;;;;;;;5.73;4.50;;;20.20;24.60;;;11.72;28.47;95736.00;4990892;28;20144;-51
2023/04/05 10:31:50;;;;;;;6.25;4.45;;;20.30;24.60;;;12.04;29.31;95738.44;4990146;28;20022;-50
2023/04/05 10:34:55;;;;;;;5.25;4.75;;;20.50;24.60;;;12.09;28.79;95741.06;4991302;28;20551;-52
2023/04/05 10:38:05;;;;;;;5.28;4.30;;;20.80;24.40;;;12.35;29.22;95739.16;4989779;28;20484;-48